createdAt,value
2022-10-14T00:06:22.063Z,22.06
2022-10-14T00:21:24.295Z,21.39
2022-10-14T00:36:26.697Z,21.45
2022-10-14T00:51:28.907Z,20.96
2022-10-14T01:06:31.155Z,19.25
2022-10-14T01:21:33.375Z,19.04
2022-10-14T01:36:35.571Z,18.51
2022-10-14T01:51:37.788Z,18.49
2022-10-14T02:06:40.030Z,17.84
2022-10-14T02:21:42.229Z,17.44
2022-10-14T02:36:44.457Z,16.92
2022-10-14T02:51:46.740Z,16.35
2022-10-14T03:06:49.105Z,16.06
2022-10-14T03:21:51.303Z,15.27
2022-10-14T03:36:53.523Z,14.95
2022-10-14T03:51:55.743Z,14.91
2022-10-14T04:06:57.927Z,13.95
2022-10-14T04:22:00.169Z,14.09
2022-10-14T04:37:02.383Z,13.98
2022-10-14T04:52:04.609Z,13.6
2022-10-14T05:07:06.867Z,13.5
2022-10-14T05:22:09.091Z,13.7
2022-10-14T05:37:11.346Z,13.05
2022-10-14T05:52:13.530Z,13.27
2022-10-14T06:07:15.789Z,12.87
2022-10-14T06:22:17.983Z,12.43
2022-10-14T06:37:20.138Z,12.31
2022-10-14T06:52:22.711Z,12.02
2022-10-14T07:07:25.131Z,12.09
2022-10-14T07:22:27.305Z,11.96
2022-10-14T07:37:29.567Z,11.7
2022-10-14T07:52:31.778Z,11.67
2022-10-14T08:07:34.001Z,11.43
2022-10-14T08:22:36.221Z,11.44
2022-10-14T08:37:38.441Z,11.26
2022-10-14T08:52:40.669Z,11.25
2022-10-14T09:07:42.962Z,11.34
2022-10-14T09:22:45.263Z,11.07
2022-10-14T09:37:47.512Z,10.81
2022-10-14T09:52:49.728Z,10.83
2022-10-14T10:07:52.145Z,10.76
2022-10-14T10:22:54.335Z,10.65
2022-10-14T10:37:56.572Z,10.71
2022-10-14T10:52:58.824Z,10.73
2022-10-14T11:08:01.056Z,10.75
2022-10-14T11:23:03.371Z,10.88
2022-10-14T11:38:05.593Z,10.41
2022-10-14T11:53:07.989Z,10.28
2022-10-14T12:08:10.150Z,10.18
2022-10-14T12:23:12.402Z,10.16
2022-10-14T12:38:14.623Z,10.11
2022-10-14T12:53:16.821Z,10.12
2022-10-14T13:08:19.026Z,9.96
2022-10-14T13:23:21.244Z,9.63
2022-10-14T13:38:23.474Z,9.32
2022-10-14T13:53:25.711Z,9.65
2022-10-14T14:08:40.213Z,9.43
2022-10-14T14:23:44.138Z,9.64
2022-10-14T14:38:46.353Z,9.37
2022-10-14T14:53:48.628Z,9.18
2022-10-14T15:08:51.005Z,9.58
2022-10-14T15:23:53.339Z,9.83
2022-10-14T15:38:55.558Z,10.89
2022-10-14T15:53:57.780Z,12.17
2022-10-14T16:09:00.054Z,11.53
2022-10-14T16:24:02.364Z,12.8
2022-10-14T16:39:04.693Z,12.95
2022-10-14T16:54:06.876Z,14.76
2022-10-14T17:09:09.200Z,14.16
2022-10-14T17:24:11.504Z,15.38
2022-10-14T17:39:17.642Z,14.49
2022-10-14T17:54:25.267Z,15.76
2022-10-14T18:09:27.447Z,16.76
2022-10-14T18:24:29.700Z,16.98
2022-10-14T18:39:32.113Z,17.36
2022-10-14T18:54:34.303Z,17.84
2022-10-14T19:09:36.639Z,18.46
2022-10-14T19:24:38.877Z,19.23
2022-10-14T19:39:41.353Z,19.37
2022-10-14T19:54:43.543Z,20.22
2022-10-14T20:09:45.733Z,20.54
2022-10-14T20:24:47.942Z,21.23
2022-10-14T20:39:50.282Z,21.52
2022-10-14T20:54:52.517Z,21.55
2022-10-14T21:09:54.740Z,21.52
2022-10-14T21:24:56.945Z,21.54
2022-10-14T21:39:59.136Z,21.35
2022-10-14T21:55:01.327Z,21.48
2022-10-14T22:10:03.570Z,21.56
2022-10-14T22:25:05.772Z,21.96
2022-10-14T22:40:08.002Z,22.14
2022-10-14T22:55:10.226Z,22.6
2022-10-14T23:10:12.461Z,22.56
2022-10-14T23:25:14.659Z,22.07
2022-10-14T23:40:17.147Z,21.47
2022-10-14T23:55:19.380Z,21.15
